Latest METARs, TAFs and NOTAMs for SKBQ


---------------------------------------------------------------------------
	(OBSERVATIONS)
SKBQ 282100Z 35012KT 9999 VCSH SCT015CB 30/26 A2976 RMK VCSH/CB
    SW=
SKBQ 281900Z VRB02KT 9999 SCT015CB SCT200 30/26 A2978 RMK CB/W=
SKBQ 260100Z 35008KT 9999 SCT015 BKN200 27/25 A2982=
SKBQ 260051Z 35008KT 9999 SCT015 BKN200 27/25 A2982=
SKBQ 260000Z 01010KT 9999 SCT015 SCT200 28/25 A2979=
SKBQ 252300Z 36010KT 9999 SCT015 SCT200 28/25 A2977=
---------------------------------------------------------------------------
	(TERMINAL AREA FORECAST)
SKBQ 252300Z 2600/2624 36010KT 9999 SCT015 BKN090
    TEMPO 2604/2609 8000 DZ BKN012
    PROB40 TEMPO 2609/2613 5000 BR SCT010
    TEMPO 2619/2621 8000 TSRA SCT015CB
    TX33/2618Z TN24/2611Z=
---------------------------------------------------------------------------
	(NOTAMS)


SKBQ A0331/18 TWR FREQ 118,45 MHZ INSTL. RMK:FREQ ALTN TWR AND
    SMC REF. AIP AD2 SKBQ 2.18. H24, 20 FEB 16:15 2018 UNTIL
    PERM. CREATED: 20 FEB 16:11 2018

SKBQ A0410/18 TWY J LTD ACFT ENTERING AND LEAVING MUST BE TOWED
    IN HN AND IMC. 01 MAR 14:00 2018 UNTIL 30 MAY 23:59 2018.
    CREATED: 01 MAR 13:14 2018

SKBQ A0433/18 NTL APN LTD, TAX AND PRKG ACFT CAT D,E,F RESTRICTED.
    H24, 06 MAR 14:57 2018 UNTIL 01 JUN 23:59 2018. CREATED:
    06 MAR 14:59 2018

SKBQ A0521/18 ALS RWY 05 U/S. H24, 15 MAR 03:00 2018 UNTIL 14
    JUN 23:59 2018. CREATED: 15 MAR 02:59 2018

SKBQ A0588/18 ACFT STAND APN NTL CHG: ACFT STAND NR 6 CHG TO
    NR 8 COORD:105311.66N0744638.14W ACFT STAND NR 7 CHG TO NR
    9 COORD:105310.66N0744639.01W ACFT STAND NR 8 CHG TO NR 10
    COORD:105309.64N0744639.85W ACFT STAND NR 9 CHG TO NR 11
    COORD:105308.64N0744640.72W ACFT STAND NR 11 CHG TO NR 15
    COORD:105307.21N0744638.29W ACFT STAND NR 12 CHG TO NR 16
    COORD:105308.00N0744637.61W ACFT STAND NR 13 CHG TO NR 17
    COORD:105308.78N0744636.94W ACFT STAND NR 10 REDESIGNED FOR
    3 PSN: ACFT STAND NR 12 COORD:105307.09N0744640.83W ACFT
    STAND NR 13 COORD:105306.54N0744639.81W ACFT STAND NR 14
    COORD:105306.71N0744638.97W. 21 MAR 20:07 2018 UNTIL 15 JUN
    23:59 2018. CREATED: 21 MAR 20:11 2018

SKBQ A0753/18 IAP RNAV (GNSS) RWY 23 NOT AVBL. 09 APR 16:45 2018
    UNTIL 09 JUL 23:59 2018. CREATED: 09 APR 16:44 2018

SKBQ A0866/18 TRANSMISOMETER RWY 23 U/S. 23 APR 13:26 2018 UNTIL
    23 JUL 23:59 2018 ESTIMATED. CREATED: 23 APR 13:27 2018

SKBQ A0910/18 CEILOMETER RWY 05 U/S. H24, 27 APR 13:26 2018 UNTIL
    27 JUL 23:59 2018 ESTIMATED. CREATED: 27 APR 13:30 2018

SKBQ A0923/18 FREQ 118.1 MHZ ERNESTO CORTISSOZ TWR U/S. OPR FREQ
    ALTN 121.9 MHZ. H24, 30 APR 13:49 2018 UNTIL 30 JUL 23:59
    2018 ESTIMATED. CREATED: 30 APR 13:50 2018

SKBQ A0994/18 AD GRASS CUTTING IN PROGRESS, EXER CTN. H24, 09
    MAY 13:47 2018 UNTIL 08 AUG 23:59 2018. CREATED: 09 MAY 13:48
    2018

SKBQ A1030/18 APN ASPHALT RELEASE, EXER CTN. H24, 15 MAY 17:58
    2018 UNTIL 22 AUG 23:59 2018. CREATED: 15 MAY 17:59 2018

SKBQ A1031/18 TWY A,B,C,D,E UNEVENNESS RESPECT RWY 05/23 EXER
    CTN. H24, 15 MAY 18:30 2018 UNTIL 22 AUG 23:59 2018. CREATED:
    15 MAY 18:35 2018

SKBQ A1032/18 STRIP RWY 05/23 WIP, EXER CTN. H24, 15 MAY 19:00
    2018 UNTIL 08 AUG 23:59 2018. CREATED: 15 MAY 19:01 2018

SKBQ A1035/18 MOV AREA WIP, EXER CTN. H24, 15 MAY 19:41 2018
    UNTIL 08 AUG 23:59 2018. CREATED: 15 MAY 19:50 2018

SKBQ A2035/17 PNS PRKG ACFT NR 1 CLSD. H24, 19 JUL 15:05 2017
    UNTIL 19 JUL 23:59 2018. CREATED: 19 JUL 15:08 2017

SKBQ A2283/09 VOR BAQ FREQ 113.7 MHZ, U/S 27 SEP 23:38 UNTIL
    29 SEP 23:00 ESTIMATED H24

SKBQ A2861/17 ASCENT OF FREE BALLOON ABOVE AP, EXER CTN. GND
    - UNL, DLY BTN 1100-1200, 10 OCT 11:00 2017 UNTIL PERM. CREATED:
    10 OCT 00:24 2017

SKBQ A3435/17 ILS/GP FREQ 333.8 MHZ RWY 05 CHG COORD: 105256,73601N0744719,24228W
    REF AIP AD 2 - SKBQ 3-19. 11 DEC 15:30 2017 UNTIL PERM. CREATED:
    11 DEC 15:30 2017

SKBQ A3436/17 ILS/LLZ IBAQ FREQ 109.9 MHZ RWY 05 CHG COORD: 105404,45523N0744615,33325W
    REF AIP AD 2 - SKBQ 3-19. 11 DEC 15:35 2017 UNTIL PERM. CREATED:
    11 DEC 15:37 2017

SKBQ A3437/17 RDH CHG TO:50'. 11 DEC 15:40 2017 UNTIL PERM. CREATED:
    11 DEC 15:40 2017

SKBQ C2117/09 TWY I OPR UNICAMENTE AVIACION MIL. H24, 31 MAY
    00:22 2009 UNTIL PERM. CREATED: 31 MAY 00:24 2009

SKBQ C4395/09 RVR 05, U/S 04 NOV 21:10 UNTIL 11 NOV 23:00 ESTIMATED

SKBQ F2452/10 [DEFENSE ENERGY SUPPORT CENTER ADVISORY] FUEL AVAILABILITY
    HOURS OF SERVICE ARE: MONDAY - FRIDAY 0600 -2200 LOCAL TIME.
    SATURDAY AND SUNDAY 08:30 -1830 LOCAL TIME. DESC DUTY OFFICER'S
    TELEPHONE NUMBER 703-767-8420, DSN 427-8420. 04 OCT 29:18
    2020 UNTIL 07 OCT 28:18 2020

---------------------------------------------------------------------------